Terminal Aerodrome Forecast
Issued by NWS Twin Cities, MN

Home | Current Version | Previous Version | Text Only | Print | Product List | Glossary Off
Versions: 1 2 3 4 5 6 7 8 9 10 11 12 13 14 15 16

000
FTUS43 KMPX 301124
TAFEAU
TAF
KEAU 301124Z 3012/0112 20003KT P6SM SCT006 OVC009
     FM301500 VRB02KT 5SM -RA BR OVC005
     FM301900 VRB03KT 3SM -DZ BR OVC008
     FM010200 31005KT P6SM VCSH OVC010
     FM010600 30006KT P6SM OVC015=

USA.gov is the U.S. government's official web portal to all federal, state and local government web resources and services.